Time;durP1;ratioP1;P1;durP2;ratioP2;P2;SDS_P1;SDS_P2;PMS_P1;PMS_P2;Temp;Humidity;BMP_temperature;BMP_pressure;BME280_temperature;BME280_humidity;BME280_pressure;Samples;Min_cycle;Max_cycle;Signal;HPM_P1;HPM_P2
2021/07/09 00:02:08;;;;;;;2.87;1.93;;;14.50;99.90;;;15.41;100.00;98624.06;5024900;28;20462;-80
2021/07/09 00:04:38;;;;;;;7.73;2.27;;;14.40;99.90;;;15.35;100.00;98627.53;5021468;28;20463;-79
2021/07/09 00:07:09;;;;;;;2.87;2.00;;;14.40;99.90;;;15.32;100.00;98625.31;5026383;28;20877;-79
2021/07/09 00:09:38;;;;;;;3.20;1.80;;;14.30;99.90;;;15.18;100.00;98628.94;5024369;28;20601;-79
2021/07/09 00:12:08;;;;;;;2.40;2.20;;;14.20;99.90;;;15.25;100.00;98628.94;5028304;28;20537;-79
2021/07/09 00:14:39;;;;;;;4.10;1.90;;;14.30;99.90;;;15.24;100.00;98624.72;5024993;28;20453;-79
2021/07/09 00:17:08;;;;;;;3.13;2.00;;;14.30;99.90;;;15.25;100.00;98619.22;5022037;28;20497;-80
2021/07/09 00:19:38;;;;;;;3.00;2.37;;;14.30;99.90;;;15.26;100.00;98620.03;5025262;28;21084;-79
2021/07/09 00:22:07;;;;;;;2.50;2.13;;;14.30;99.90;;;15.28;100.00;98620.63;5024943;28;20535;-80
2021/07/09 00:24:37;;;;;;;4.83;2.20;;;14.30;99.90;;;15.33;100.00;98616.41;5023949;28;20839;-79
2021/07/09 00:27:08;;;;;;;10.83;2.30;;;14.40;99.90;;;15.40;100.00;98611.13;5024982;28;20505;-80
2021/07/09 00:29:40;;;;;;;2.63;2.00;;;14.50;99.90;;;15.27;100.00;98614.56;5027822;28;20526;-79
2021/07/09 00:32:09;;;;;;;3.53;1.90;;;14.40;99.90;;;15.17;100.00;98619.41;5022682;28;20801;-79
2021/07/09 00:34:39;;;;;;;2.30;2.10;;;14.20;99.90;;;15.07;100.00;98622.44;5026461;28;20482;-79
2021/07/09 00:37:08;;;;;;;5.77;2.27;;;14.10;99.90;;;15.23;100.00;98617.81;5022965;28;20482;-79
2021/07/09 00:39:38;;;;;;;3.40;2.30;;;14.20;99.90;;;15.30;100.00;98622.06;5023108;28;20470;-79
2021/07/09 00:42:08;;;;;;;7.60;2.13;;;14.30;99.90;;;15.31;100.00;98610.50;5024283;28;20496;-79
2021/07/09 00:44:40;;;;;;;5.30;2.23;;;14.40;99.90;;;15.21;100.00;98618.00;5027807;28;20465;-79
2021/07/09 00:47:11;;;;;;;6.40;2.30;;;14.30;99.90;;;15.24;100.00;98614.19;5022188;28;20803;-79
2021/07/09 00:49:41;;;;;;;3.13;1.83;;;14.30;99.90;;;15.29;100.00;98609.91;5026119;28;20508;-79
2021/07/09 00:52:12;;;;;;;5.20;2.00;;;14.30;99.90;;;15.34;100.00;98611.94;5027935;28;20813;-79
2021/07/09 00:54:41;;;;;;;5.30;1.83;;;14.40;99.90;;;15.25;100.00;98603.41;5025522;28;20461;-79
2021/07/09 00:57:14;;;;;;;4.90;2.30;;;14.30;99.90;;;15.23;100.00;98608.09;5025221;28;20458;-79
2021/07/09 00:59:45;;;;;;;4.23;2.33;;;14.30;99.90;;;15.25;100.00;98602.59;5021297;28;20981;-79
2021/07/09 01:02:15;;;;;;;5.60;2.37;;;14.30;99.90;;;15.28;100.00;98603.00;5024083;28;20564;-79
2021/07/09 01:04:46;;;;;;;3.50;2.43;;;14.30;99.90;;;15.34;100.00;98601.41;5025811;28;20466;-79
2021/07/09 01:07:15;;;;;;;2.50;1.87;;;14.50;99.90;;;15.40;100.00;98601.41;5026826;28;20458;-79
2021/07/09 01:09:45;;;;;;;9.73;3.50;;;14.50;99.90;;;15.47;100.00;98596.94;5024263;28;20474;-79
2021/07/09 01:12:15;;;;;;;6.50;2.20;;;14.60;99.90;;;15.50;100.00;98596.53;5025133;28;21042;-79
2021/07/09 01:14:45;;;;;;;4.70;1.90;;;14.60;99.90;;;15.48;100.00;98588.00;5024543;28;20457;-79
2021/07/09 01:17:16;;;;;;;6.03;1.63;;;14.60;99.90;;;15.51;100.00;98590.28;5020811;28;20960;-79
2021/07/09 01:19:47;;;;;;;6.77;2.17;;;14.60;99.90;;;15.52;100.00;98589.22;5025458;28;20576;-79
2021/07/09 01:22:17;;;;;;;6.23;2.73;;;14.60;99.90;;;15.47;100.00;98578.47;5026358;28;20539;-79
2021/07/09 01:24:48;;;;;;;4.27;1.90;;;14.50;99.90;;;15.51;100.00;98577.09;5018737;28;20454;-79
2021/07/09 01:27:18;;;;;;;11.10;2.60;;;14.60;99.90;;;15.52;100.00;98578.69;5026253;28;20964;-79
2021/07/09 01:29:49;;;;;;;4.33;2.40;;;14.60;99.90;;;15.51;100.00;98579.72;5028800;28;20994;-79
2021/07/09 01:32:18;;;;;;;3.77;2.67;;;14.60;99.90;;;15.53;100.00;98576.88;5023808;28;20953;-79
2021/07/09 01:34:48;;;;;;;2.83;2.10;;;14.60;99.90;;;15.39;100.00;98573.41;5024872;28;20466;-79
2021/07/09 01:37:19;;;;;;;8.03;2.27;;;14.50;99.90;;;15.42;100.00;98575.63;5024078;28;20454;-79
2021/07/09 01:39:50;;;;;;;3.47;2.20;;;14.50;99.90;;;15.45;100.00;98575.22;5027264;28;20500;-79
2021/07/09 01:42:20;;;;;;;4.60;2.07;;;14.50;99.90;;;15.44;100.00;98581.53;5027133;28;20848;-79
2021/07/09 01:44:50;;;;;;;3.97;2.00;;;14.50;99.90;;;15.34;100.00;98581.09;5025072;28;20647;-79
2021/07/09 01:47:20;;;;;;;2.03;1.83;;;14.40;99.90;;;15.43;100.00;98579.91;5023672;28;20446;-79
2021/07/09 01:49:56;;;;;;;8.93;2.40;;;14.50;99.90;;;15.28;100.00;98584.56;5028059;28;20508;-79
2021/07/09 01:52:28;;;;;;;5.43;2.37;;;14.40;99.90;;;15.37;100.00;98575.44;5025967;28;20497;-79
2021/07/09 01:55:00;;;;;;;4.50;2.50;;;14.30;99.90;;;15.45;100.00;98575.22;5025922;28;20450;-79
2021/07/09 01:57:30;;;;;;;4.93;2.70;;;14.50;99.90;;;15.50;100.00;98588.63;5021916;28;20461;-79
2021/07/09 02:00:02;;;;;;;3.87;2.20;;;14.60;99.90;;;15.52;100.00;98573.41;5020984;28;21065;-79
2021/07/09 02:02:32;;;;;;;4.23;2.10;;;14.60;99.90;;;15.51;100.00;98571.81;5024858;28;20474;-79
2021/07/09 02:05:05;;;;;;;19.07;2.80;;;14.60;99.90;;;15.58;100.00;98572.59;5017103;28;20459;-79
2021/07/09 02:07:35;;;;;;;3.13;2.07;;;14.70;99.90;;;15.61;100.00;98579.28;5017993;28;20852;-79
2021/07/09 02:10:09;;;;;;;8.70;2.23;;;14.80;99.90;;;15.62;100.00;98572.19;5027253;28;20471;-79
2021/07/09 02:12:41;;;;;;;10.77;2.27;;;14.80;99.90;;;15.50;100.00;98578.09;5024199;28;20473;-79
2021/07/09 02:15:16;;;;;;;5.90;2.10;;;14.60;99.90;;;15.38;100.00;98574.41;5025929;28;20461;-79
2021/07/09 02:17:45;;;;;;;3.90;2.30;;;14.50;99.90;;;15.29;100.00;98580.91;5023288;28;20466;-79
2021/07/09 02:20:20;;;;;;;2.73;2.00;;;14.30;99.90;;;15.36;100.00;98579.09;5020191;28;20493;-79
2021/07/09 02:22:50;;;;;;;6.20;2.33;;;14.50;99.90;;;15.44;100.00;98581.53;5023303;28;20508;-79
2021/07/09 02:25:22;;;;;;;8.80;2.13;;;14.50;99.90;;;15.48;100.00;98574.84;5023515;28;20508;-79
2021/07/09 02:27:55;;;;;;;5.60;1.80;;;14.60;99.90;;;15.47;100.00;98575.84;5025334;28;20504;-79
2021/07/09 02:30:27;;;;;;;7.03;2.47;;;14.60;99.90;;;15.37;100.00;98575.44;5022758;28;20477;-79
2021/07/09 02:32:58;;;;;;;6.10;2.03;;;14.50;99.90;;;15.31;100.00;98576.25;5021396;28;20501;-79
2021/07/09 02:35:33;;;;;;;2.10;1.90;;;14.40;99.90;;;15.35;100.00;98574.81;5024553;28;20465;-79
2021/07/09 02:38:02;;;;;;;5.63;2.07;;;14.40;99.90;;;15.38;100.00;98576.25;5023423;28;20473;-79
2021/07/09 02:40:34;;;;;;;3.70;2.20;;;14.40;99.90;;;15.28;100.00;98567.94;5016765;28;20498;-79
2021/07/09 02:43:06;;;;;;;4.30;2.27;;;14.30;99.90;;;15.31;100.00;98570.97;5025878;28;20442;-79
2021/07/09 02:45:36;;;;;;;3.23;2.30;;;14.40;99.90;;;15.25;100.00;98563.88;5021860;28;20466;-79
2021/07/09 02:48:18;;;;;;;9.70;2.27;;;14.30;99.90;;;15.37;100.00;98558.81;5022393;28;20843;-80
2021/07/09 02:50:49;;;;;;;6.93;1.90;;;14.40;99.90;;;15.38;100.00;98566.50;5020270;28;20486;-80
2021/07/09 02:53:19;;;;;;;6.70;2.33;;;14.40;99.90;;;15.47;100.00;98562.66;5022645;28;20490;-80
2021/07/09 02:55:51;;;;;;;6.20;2.30;;;14.50;99.90;;;15.41;100.00;98570.59;5019998;28;21048;-80
2021/07/09 02:58:20;;;;;;;8.50;2.10;;;14.50;99.90;;;15.44;100.00;98576.25;5017389;28;20471;-80
2021/07/09 03:00:51;;;;;;;2.23;1.77;;;14.50;99.90;;;15.44;100.00;98570.97;5019169;28;21016;-80
2021/07/09 03:03:20;;;;;;;4.87;2.37;;;14.50;99.90;;;15.49;100.00;98567.75;5022514;28;20473;-80
2021/07/09 03:05:49;;;;;;;2.73;2.10;;;14.50;99.90;;;15.52;100.00;98572.59;5023166;28;20497;-80
2021/07/09 03:08:20;;;;;;;9.30;2.30;;;14.60;99.90;;;15.49;100.00;98567.75;5024092;28;20501;-80
2021/07/09 03:10:50;;;;;;;2.57;2.03;;;14.50;99.90;;;15.48;100.00;98571.38;5021814;28;20512;-80
2021/07/09 03:13:21;;;;;;;11.77;3.40;;;14.50;99.90;;;15.44;100.00;98565.72;5019476;28;20489;-80
2021/07/09 03:15:51;;;;;;;5.00;2.57;;;14.50;99.90;;;15.34;100.00;98569.78;5012497;28;20483;-80
2021/07/09 03:18:21;;;;;;;2.40;1.70;;;14.40;99.90;;;15.29;100.00;98567.75;5023474;28;20461;-80
2021/07/09 03:20:51;;;;;;;8.50;2.40;;;14.30;99.90;;;15.38;100.00;98577.06;5026142;28;20877;-80
2021/07/09 03:23:20;;;;;;;2.53;2.33;;;14.40;99.90;;;15.42;100.00;98582.72;5022478;28;20466;-80
2021/07/09 03:25:51;;;;;;;4.23;2.23;;;14.50;99.90;;;15.42;100.00;98578.28;5015292;28;20462;-80
2021/07/09 03:28:20;;;;;;;10.87;2.30;;;14.50;99.90;;;15.45;100.00;98580.50;5022460;28;20484;-80
2021/07/09 03:30:49;;;;;;;3.80;2.10;;;14.50;99.90;;;15.39;100.00;98581.31;5018620;28;20900;-80
2021/07/09 03:33:20;;;;;;;2.93;2.27;;;14.50;99.90;;;15.42;100.00;98580.91;5021882;28;20465;-79
2021/07/09 03:35:50;;;;;;;48.47;24.07;;;14.50;99.90;;;15.45;100.00;98577.84;5022550;28;20465;-84
2021/07/09 03:38:20;;;;;;;6.70;3.03;;;14.50;99.90;;;15.41;100.00;98575.84;5021144;28;20462;-80
2021/07/09 03:40:51;;;;;;;6.70;2.43;;;14.50;99.90;;;15.45;100.00;98577.84;5017326;28;20499;-80
2021/07/09 03:43:20;;;;;;;3.10;2.33;;;14.50;99.90;;;15.46;100.00;98574.22;5017677;28;20470;-80
2021/07/09 03:45:50;;;;;;;6.30;3.40;;;14.50;99.90;;;15.48;100.00;98574.03;5017942;28;21062;-80
2021/07/09 03:48:20;;;;;;;5.47;2.23;;;14.50;99.90;;;15.50;100.00;98577.28;5020462;28;20474;-80
2021/07/09 03:50:50;;;;;;;2.20;1.80;;;14.50;99.90;;;15.48;100.00;98577.47;5023488;28;20539;-80
2021/07/09 03:53:19;;;;;;;6.50;2.23;;;14.50;99.90;;;15.46;100.00;98576.84;5026698;28;20523;-80
2021/07/09 03:55:50;;;;;;;3.77;2.20;;;14.50;99.90;;;15.47;100.00;98573.22;5020667;28;20450;-80
2021/07/09 03:58:19;;;;;;;6.23;2.47;;;14.50;99.90;;;15.47;100.00;98575.84;5026419;28;20461;-80
2021/07/09 04:00:49;;;;;;;2.30;2.10;;;14.60;99.90;;;15.49;100.00;98573.81;5024593;28;20503;-79
2021/07/09 04:03:18;;;;;;;5.70;1.90;;;14.60;99.90;;;15.48;100.00;98572.19;5026450;28;20466;-79
2021/07/09 04:05:49;;;;;;;6.53;2.40;;;14.50;99.90;;;15.52;100.00;98576.06;5022638;28;20461;-83
2021/07/09 04:08:20;;;;;;;4.90;2.20;;;14.60;99.90;;;15.52;100.00;98570.78;5022077;28;20465;-79
2021/07/09 04:10:50;;;;;;;5.63;3.83;;;14.60;99.90;;;15.56;100.00;98564.09;5026715;28;20515;-80
2021/07/09 04:13:20;;;;;;;6.33;2.27;;;14.70;99.90;;;15.57;100.00;98571.00;5013889;28;20454;-79
2021/07/09 04:15:50;;;;;;;13.53;2.53;;;14.70;99.90;;;15.57;100.00;98573.63;5019453;28;20454;-80
2021/07/09 04:18:20;;;;;;;4.53;1.60;;;14.70;99.90;;;15.53;100.00;98579.50;5027458;28;20956;-79
2021/07/09 04:20:50;;;;;;;6.93;2.60;;;14.70;99.90;;;15.52;100.00;98578.69;5027187;28;20581;-81
2021/07/09 04:23:20;;;;;;;9.73;1.97;;;14.60;99.90;;;15.52;100.00;98583.16;5027691;28;20442;-80
2021/07/09 04:25:51;;;;;;;4.57;2.17;;;14.60;99.90;;;15.53;100.00;98580.31;5025242;28;20455;-79
2021/07/09 04:28:21;;;;;;;4.03;2.87;;;14.60;99.90;;;15.48;100.00;98582.75;5025405;28;20446;-80
2021/07/09 04:30:53;;;;;;;3.17;2.40;;;14.60;99.90;;;15.51;100.00;98582.34;5024391;28;20458;-79
2021/07/09 04:33:23;;;;;;;5.27;2.27;;;14.60;99.90;;;15.52;100.00;98588.41;5025731;28;20451;-79
2021/07/09 04:35:53;;;;;;;4.07;2.13;;;14.60;99.90;;;15.51;100.00;98582.34;5016876;28;20447;-79
2021/07/09 04:38:23;;;;;;;4.83;2.33;;;14.60;99.90;;;15.52;100.00;98589.22;5027688;28;20942;-79
2021/07/09 04:40:54;;;;;;;3.50;2.40;;;14.60;99.90;;;15.49;100.00;98587.00;5023835;28;21023;-79
2021/07/09 04:43:24;;;;;;;18.13;2.10;;;14.50;99.90;;;15.47;100.00;98590.84;5027777;28;20442;-79
2021/07/09 04:45:54;;;;;;;2.83;2.33;;;14.50;99.90;;;15.46;100.00;98594.47;5022648;28;20994;-79
2021/07/09 04:48:23;;;;;;;10.13;2.90;;;14.50;99.90;;;15.49;100.00;98597.56;5026908;28;20501;-79
2021/07/09 04:50:53;;;;;;;7.03;2.03;;;14.50;99.90;;;15.49;100.00;98597.56;5028451;28;20446;-79
2021/07/09 04:53:22;;;;;;;5.67;2.73;;;14.50;99.90;;;15.49;100.00;98600.19;5030459;28;20960;-79
2021/07/09 04:55:53;;;;;;;5.93;2.50;;;14.50;99.90;;;15.53;100.00;98603.22;5030079;28;20453;-79
2021/07/09 04:58:22;;;;;;;4.43;2.40;;;14.60;99.90;;;15.56;100.00;98595.72;5029283;28;20458;-79
2021/07/09 05:00:57;;;;;;;4.20;2.23;;;14.60;99.90;;;15.57;100.00;98602.63;5028444;28;20490;-80
2021/07/09 05:03:33;;;;;;;2.63;2.20;;;14.70;99.90;;;15.60;100.00;98596.94;5026418;28;20803;-79
2021/07/09 05:06:05;;;;;;;2.60;1.93;;;14.70;99.90;;;15.62;100.00;98603.84;5028302;28;20457;-79
2021/07/09 05:08:34;;;;;;;3.80;2.50;;;14.70;99.90;;;15.62;100.00;98611.75;5032064;28;20457;-79
2021/07/09 05:11:06;;;;;;;2.30;2.10;;;14.70;99.90;;;15.57;100.00;98607.09;5033127;28;20446;-79
2021/07/09 05:13:39;;;;;;;5.03;2.67;;;14.60;99.90;;;15.63;100.00;98608.06;5030303;28;20466;-79
2021/07/09 05:16:10;;;;;;;7.93;2.60;;;14.70;99.90;;;15.67;100.00;98611.94;5032413;28;20442;-79
2021/07/09 05:18:40;;;;;;;18.17;2.60;;;14.70;99.90;;;15.62;100.00;98604.63;5030504;28;20949;-79
2021/07/09 05:21:12;;;;;;;11.70;2.80;;;14.70;99.90;;;15.65;100.00;98606.88;5030517;28;20521;-80
2021/07/09 05:23:43;;;;;;;2.70;2.50;;;14.70;99.90;;;15.64;100.00;98607.06;5029392;28;20458;-79
2021/07/09 05:26:14;;;;;;;3.77;2.50;;;14.70;99.90;;;15.69;100.00;98610.69;5029108;28;20455;-81
2021/07/09 05:28:45;;;;;;;3.10;2.80;;;14.80;99.90;;;15.68;100.00;98609.09;5032139;28;20457;-80
2021/07/09 05:31:14;;;;;;;3.30;2.40;;;14.80;99.90;;;15.73;100.00;98606.63;5030725;28;21013;-79
2021/07/09 05:33:45;;;;;;;5.77;2.50;;;14.80;99.90;;;15.80;100.00;98601.34;5032022;28;20442;-79
2021/07/09 05:36:15;;;;;;;9.87;2.50;;;14.90;99.90;;;15.81;100.00;98609.06;5025397;28;20492;-79
2021/07/09 05:38:43;;;;;;;3.27;2.10;;;14.90;99.90;;;15.85;100.00;98609.47;5024060;28;20469;-79
2021/07/09 05:41:14;;;;;;;9.83;2.60;;;15.00;99.90;;;15.83;100.00;98609.66;5029716;28;20505;-79
2021/07/09 05:43:43;;;;;;;4.80;2.80;;;15.00;99.90;;;15.86;100.00;98611.88;5030571;28;20474;-80
2021/07/09 05:46:13;;;;;;;3.17;2.40;;;15.00;99.90;;;15.90;100.00;98612.28;5030388;28;20466;-82
2021/07/09 05:48:42;;;;;;;10.63;3.03;;;15.00;99.90;;;15.91;100.00;98617.38;5028158;28;20477;-79
2021/07/09 05:51:13;;;;;;;4.33;2.87;;;15.00;99.90;;;15.92;100.00;98616.34;5029244;28;20446;-79
2021/07/09 05:53:42;;;;;;;4.70;2.90;;;15.00;99.90;;;15.94;100.00;98614.31;5025858;28;20469;-79
2021/07/09 05:56:11;;;;;;;3.83;2.80;;;15.00;99.90;;;15.99;100.00;98621.59;5030454;28;20450;-79
2021/07/09 05:58:43;;;;;;;9.63;3.63;;;15.10;99.90;;;16.07;100.00;98618.72;5028660;28;20504;-79
2021/07/09 06:01:12;;;;;;;5.40;3.00;;;15.10;99.90;;;16.10;100.00;98619.13;5020839;28;20564;-79
2021/07/09 06:03:40;;;;;;;10.20;3.23;;;15.20;99.90;;;16.17;100.00;98616.47;5028967;28;20548;-79
2021/07/09 06:06:11;;;;;;;6.40;3.40;;;15.30;99.90;;;16.24;100.00;98622.56;5022036;28;20490;-79
2021/07/09 06:08:40;;;;;;;7.37;3.97;;;15.40;99.90;;;16.31;100.00;98625.97;5029610;28;20450;-79
2021/07/09 06:11:11;;;;;;;8.83;4.30;;;15.50;99.90;;;16.35;100.00;98619.22;5023080;28;20450;-79
2021/07/09 06:13:42;;;;;;;7.27;4.23;;;15.50;99.90;;;16.41;100.00;98626.34;5029282;28;20466;-79
2021/07/09 06:16:13;;;;;;;8.17;4.80;;;15.50;99.90;;;16.45;100.00;98632.78;5029920;28;20504;-79
2021/07/09 06:18:44;;;;;;;6.43;4.67;;;15.60;99.90;;;16.50;100.00;98625.06;5029231;28;20474;-79
2021/07/09 06:21:24;;;;;;;6.03;4.23;;;15.60;99.90;;;16.56;100.00;98634.00;5024916;28;20497;-80
2021/07/09 06:23:54;;;;;;;9.83;6.30;;;15.80;99.90;;;16.64;100.00;98638.22;5023219;28;20497;-80
2021/07/09 06:26:24;;;;;;;12.13;7.10;;;15.90;99.90;;;16.71;100.00;98642.47;5028409;28;20446;-80
2021/07/09 06:28:55;;;;;;;16.53;7.60;;;15.90;99.90;;;16.79;100.00;98636.13;5029624;28;20512;-80
2021/07/09 06:31:26;;;;;;;13.93;10.90;;;16.00;99.90;;;16.84;100.00;98633.66;5028952;28;20454;-80
2021/07/09 06:33:56;;;;;;;12.40;8.90;;;16.00;99.90;;;16.91;100.00;98637.06;5022174;28;20451;-80
2021/07/09 06:36:26;;;;;;;17.93;10.47;;;16.10;99.90;;;16.99;100.00;98634.19;5029412;28;20449;-80
2021/07/09 06:38:55;;;;;;;16.67;10.47;;;16.20;99.90;;;17.06;100.00;98638.41;5029556;28;20533;-80
2021/07/09 06:41:24;;;;;;;14.30;10.00;;;16.30;99.90;;;17.10;100.00;98642.25;5028596;28;21104;-79
2021/07/09 06:43:57;;;;;;;13.13;9.53;;;16.30;99.90;;;17.15;100.00;98636.28;5029342;28;20454;-80
2021/07/09 06:46:27;;;;;;;15.60;9.60;;;16.40;99.90;;;17.23;100.00;98638.69;5029216;28;20438;-80
2021/07/09 06:48:56;;;;;;;11.43;8.17;;;16.50;99.90;;;17.34;100.00;98640.63;5027049;28;20478;-79
2021/07/09 06:51:25;;;;;;;17.43;9.33;;;16.60;99.90;;;17.38;100.00;98648.94;5029250;28;20520;-80
2021/07/09 06:53:56;;;;;;;21.03;10.63;;;16.60;99.90;;;17.42;100.00;98652.78;5029010;28;20565;-80
2021/07/09 06:56:26;;;;;;;15.10;10.80;;;16.70;99.90;;;17.49;100.00;98653.53;5028982;28;20755;-80
2021/07/09 06:58:57;;;;;;;21.63;10.77;;;16.70;99.90;;;17.53;100.00;98652.88;5028738;28;20469;-79
2021/07/09 07:01:29;;;;;;;10.33;8.23;;;16.80;99.90;;;17.56;100.00;98667.56;5029623;28;20501;-80
2021/07/09 07:04:01;;;;;;;16.33;9.80;;;16.80;99.90;;;17.58;100.00;98663.66;5026620;28;20524;-80
2021/07/09 07:06:32;;;;;;;18.50;13.20;;;16.80;99.90;;;17.58;100.00;98660.19;5025708;28;20457;-80
2021/07/09 07:09:02;;;;;;;20.10;14.10;;;16.80;99.90;;;17.58;100.00;98655.72;5029038;28;20445;-79
2021/07/09 07:11:31;;;;;;;14.53;10.53;;;16.90;99.90;;;17.62;100.00;98663.22;5026612;28;20471;-80
2021/07/09 07:14:02;;;;;;;16.93;11.80;;;16.90;99.90;;;17.62;100.00;98655.28;5028074;28;20466;-80
2021/07/09 07:16:32;;;;;;;19.20;12.13;;;16.90;99.90;;;17.71;100.00;98664.56;5028469;28;20456;-80
2021/07/09 07:19:02;;;;;;;16.70;11.80;;;16.90;99.90;;;17.74;100.00;98658.81;5025288;28;20466;-80
2021/07/09 07:21:32;;;;;;;12.30;9.57;;;17.00;99.90;;;17.80;100.00;98665.91;5027528;28;20548;-79
2021/07/09 07:24:01;;;;;;;18.97;12.67;;;17.00;99.90;;;17.86;100.00;98665.84;5029047;28;20468;-79
2021/07/09 07:26:33;;;;;;;23.23;14.50;;;17.00;99.90;;;17.88;100.00;98662.97;5028258;28;20460;-80
2021/07/09 07:29:07;;;;;;;24.00;15.30;;;17.10;99.90;;;17.91;100.00;98657.25;5027423;28;20458;-80
2021/07/09 07:31:36;;;;;;;28.80;19.50;;;17.10;99.90;;;17.98;100.00;98660.63;5027453;28;20469;-80
2021/07/09 07:34:07;;;;;;;28.27;17.90;;;17.20;99.90;;;17.99;100.00;98663.06;5029402;28;20458;-79
2021/07/09 07:36:39;;;;;;;26.23;15.13;;;17.20;99.90;;;18.05;100.00;98670.13;5028625;28;20967;-80
2021/07/09 07:39:11;;;;;;;24.20;15.30;;;17.30;99.90;;;18.09;100.00;98667.84;5025984;28;20443;-80
2021/07/09 07:41:42;;;;;;;26.77;16.50;;;17.30;99.90;;;18.13;100.00;98655.78;5027705;28;20500;-80
2021/07/09 07:44:15;;;;;;;21.90;15.63;;;17.40;99.90;;;18.20;100.00;98661.00;5023489;28;20992;-80
2021/07/09 07:46:49;;;;;;;21.70;15.60;;;17.40;99.90;;;18.26;100.00;98662.78;5029524;28;20959;-80
2021/07/09 07:49:22;;;;;;;28.53;19.73;;;17.40;99.90;;;18.30;100.00;98662.13;5025989;28;20465;-80
2021/07/09 07:51:54;;;;;;;25.00;18.93;;;17.60;99.90;;;18.30;100.00;98662.13;5028108;28;20450;-81
2021/07/09 07:54:23;;;;;;;29.93;18.80;;;17.60;99.90;;;18.35;100.00;98664.94;5028240;28;20508;-80
2021/07/09 07:56:53;;;;;;;31.03;20.27;;;17.60;99.90;;;18.46;100.00;98666.84;5028411;28;20936;-80
2021/07/09 07:59:23;;;;;;;37.67;23.20;;;17.80;99.90;;;18.42;100.00;98668.31;5028406;28;20454;-80
2021/07/09 08:01:54;;;;;;;38.70;22.20;;;17.80;99.90;;;18.54;100.00;98666.56;5027129;28;20490;-80
2021/07/09 08:04:24;;;;;;;41.83;23.97;;;17.90;99.90;;;18.58;100.00;98665.09;5014332;28;20482;-79
2021/07/09 08:06:55;;;;;;;41.37;24.30;;;17.90;99.90;;;18.67;100.00;98675.38;5027819;28;20503;-80
2021/07/09 08:09:27;;;;;;;43.77;23.20;;;18.00;99.90;;;18.62;100.00;98672.56;5023204;28;20450;-80
2021/07/09 08:11:57;;;;;;;36.33;22.60;;;18.00;99.90;;;18.73;100.00;98669.19;5026349;28;20509;-80
2021/07/09 08:14:30;;;;;;;35.50;22.70;;;18.10;99.90;;;18.75;100.00;98667.09;5029151;28;20458;-80
2021/07/09 08:17:01;;;;;;;34.07;20.93;;;18.10;99.90;;;18.79;100.00;98663.78;5027425;28;20442;-80
2021/07/09 08:19:33;;;;;;;39.40;24.43;;;18.10;99.90;;;18.72;100.00;98657.78;5028889;28;20478;-80
2021/07/09 08:22:04;;;;;;;35.73;22.67;;;18.00;99.90;;;18.69;100.00;98662.72;5030571;28;20501;-79
2021/07/09 08:24:35;;;;;;;39.13;25.97;;;17.90;99.90;;;18.72;100.00;98656.97;5031563;28;20533;-79
2021/07/09 08:27:05;;;;;;;44.90;25.07;;;18.00;99.90;;;18.67;100.00;98664.78;5031794;28;20457;-80
2021/07/09 08:29:35;;;;;;;43.27;24.30;;;17.90;99.90;;;18.75;100.00;98664.47;5032269;28;20446;-79
2021/07/09 08:32:06;;;;;;;40.17;21.90;;;18.00;99.90;;;18.80;100.00;98665.41;5025850;28;20465;-79
2021/07/09 08:34:37;;;;;;;40.17;22.93;;;18.00;99.90;;;18.84;100.00;98660.47;5022252;28;20465;-80
2021/07/09 08:37:06;;;;;;;46.20;24.70;;;18.00;99.90;;;18.88;100.00;98656.34;5031794;28;20438;-80
2021/07/09 08:39:36;;;;;;;41.97;24.00;;;18.20;99.90;;;18.83;100.00;98648.25;5031036;28;20922;-80
2021/07/09 08:42:06;;;;;;;40.50;24.10;;;18.20;99.90;;;18.89;100.00;98647.34;5032909;28;21069;-80
2021/07/09 08:44:38;;;;;;;47.73;27.00;;;18.30;99.90;;;18.87;100.00;98649.44;5031825;28;20462;-80
2021/07/09 08:47:09;;;;;;;40.73;23.30;;;18.10;99.90;;;18.87;100.00;98642.28;5033065;28;20492;-80
2021/07/09 08:49:40;;;;;;;41.93;24.97;;;18.10;99.90;;;18.89;100.00;98642.03;5030543;28;20988;-79
2021/07/09 08:52:10;;;;;;;38.50;24.53;;;18.10;99.90;;;18.94;100.00;98642.19;5030147;28;20457;-79
2021/07/09 08:54:40;;;;;;;38.47;22.07;;;18.20;99.90;;;18.98;100.00;98640.72;5030397;28;20469;-80
2021/07/09 08:57:10;;;;;;;38.40;23.03;;;18.20;99.90;;;18.95;100.00;98647.25;5031189;28;20936;-80
2021/07/09 08:59:40;;;;;;;41.90;22.57;;;18.30;99.90;;;18.97;100.00;98645.19;5031681;28;20450;-80
2021/07/09 09:02:09;;;;;;;35.83;22.90;;;18.40;99.90;;;19.03;100.00;98638.19;5031072;28;20536;-80
2021/07/09 09:04:39;;;;;;;39.70;23.40;;;18.40;99.90;;;19.08;100.00;98635.66;5024802;28;20556;-80
2021/07/09 09:07:13;;;;;;;37.07;22.03;;;18.50;99.90;;;19.15;100.00;98640.88;5030795;28;20504;-80
2021/07/09 09:09:46;;;;;;;43.00;24.70;;;18.50;99.90;;;19.22;100.00;98639.72;5032610;28;20453;-80
2021/07/09 09:12:38;;;;;;;36.80;21.77;;;18.70;99.90;;;19.26;100.00;98643.56;5022474;28;20544;-79
2021/07/09 09:15:11;;;;;;;40.20;22.13;;;18.60;99.90;;;19.33;100.00;98638.13;5029131;28;20493;-80
2021/07/09 09:17:41;;;;;;;38.93;21.33;;;18.70;99.90;;;19.33;100.00;98646.88;5023935;28;20454;-80
2021/07/09 09:20:16;;;;;;;35.93;20.57;;;18.70;99.90;;;19.34;100.00;98635.25;5030944;28;20455;-80
2021/07/09 09:23:01;;;;;;;34.70;20.87;;;18.70;99.90;;;19.48;100.00;98626.06;5024164;28;20486;-79
2021/07/09 09:25:33;;;;;;;34.53;21.90;;;18.80;99.90;;;19.52;100.00;98634.38;5017668;28;20459;-80
2021/07/09 09:28:06;;;;;;;34.80;20.80;;;18.80;99.90;;;19.60;100.00;98636.69;5028728;28;20841;-80
2021/07/09 09:30:42;;;;;;;34.20;20.33;;;18.90;99.90;;;19.66;100.00;98627.00;5029710;28;20455;-81
2021/07/09 09:33:14;;;;;;;29.57;18.90;;;19.00;99.90;;;19.68;100.00;98633.69;5029471;28;20477;-80
2021/07/09 09:35:48;;;;;;;29.80;19.40;;;19.10;99.90;;;19.57;100.00;98635.31;5030692;28;21003;-80
2021/07/09 09:38:23;;;;;;;35.93;20.10;;;19.00;99.90;;;19.57;100.00;98627.34;5030230;28;20857;-79
2021/07/09 09:40:59;;;;;;;29.77;19.40;;;18.90;99.90;;;19.66;100.00;98625.16;5027652;28;21003;-80
2021/07/09 09:43:35;;;;;;;34.03;22.50;;;19.00;99.90;;;19.62;100.00;98623.19;5029030;28;20499;-80
2021/07/09 09:46:10;;;;;;;29.97;19.67;;;18.90;99.90;;;19.62;100.00;98626.66;5030252;28;20446;-80
2021/07/09 09:48:46;;;;;;;29.03;19.57;;;19.00;99.90;;;19.66;100.00;98622.50;5029594;28;20504;-80
2021/07/09 09:51:33;;;;;;;26.80;18.77;;;19.10;99.90;;;19.73;100.00;98627.69;5030442;28;20445;-80
2021/07/09 09:54:08;;;;;;;22.93;15.90;;;19.10;99.90;;;19.83;100.00;98630.56;5030728;28;20477;-82
2021/07/09 09:56:46;;;;;;;27.97;19.10;;;19.20;99.90;;;19.90;100.00;98623.28;5031085;28;20466;-80
2021/07/09 09:59:21;;;;;;;27.50;19.80;;;19.20;99.90;;;19.94;100.00;98627.09;5029292;28;20972;-80
2021/07/09 10:01:59;;;;;;;28.43;17.70;;;19.30;99.90;;;20.03;100.00;98617.72;5029995;28;20969;-80
2021/07/09 10:04:31;;;;;;;25.10;16.90;;;19.40;99.90;;;20.11;100.00;98620.03;5022295;28;20999;-80
2021/07/09 10:07:01;;;;;;;24.80;16.50;;;19.50;99.90;;;20.19;100.00;98618.88;5028551;28;20489;-80
2021/07/09 10:09:31;;;;;;;24.37;15.00;;;19.50;99.90;;;20.22;100.00;98616.56;5029814;28;20581;-80
2021/07/09 10:12:03;;;;;;;19.50;13.97;;;19.50;99.90;;;20.26;100.00;98617.72;5028076;28;20486;-80
2021/07/09 10:14:39;;;;;;;18.87;13.17;;;19.50;99.90;;;20.34;100.00;98617.34;5029998;28;20872;-80
2021/07/09 10:17:15;;;;;;;22.03;15.47;;;19.60;99.90;;;20.40;100.00;98615.63;5029477;28;20457;-80
2021/07/09 10:19:49;;;;;;;28.10;16.50;;;19.70;99.90;;;20.45;100.00;98605.06;5025147;28;20786;-80
2021/07/09 10:22:39;;;;;;;24.47;16.03;;;19.80;99.90;;;20.47;100.00;98603.00;5024447;28;20575;-80
2021/07/09 10:25:10;;;;;;;20.30;14.87;;;19.80;99.90;;;20.56;100.00;98607.69;5029272;28;20454;-80